Terminal Aerodrome Forecast
Issued by NWS

Home | Current Version | Previous Version | Graphics & Text | Print | Product List | Glossary On
Versions: 1 2 3 4 5 6 7 8 9 10 11 12 13 14 15 16
583
FTUS43 KTOP 212339
TAFMHK
TAF
KMHK 212339Z 2200/2224 20011KT P6SM SKC
     FM220800 21012KT P6SM SKC WS015/22040KT
     FM221200 22012KT P6SM SKC
     FM221800 23006KT P6SM FEW080=

USA.gov is the U.S. government's official web portal to all federal, state and local government web resources and services.